Time;durP1;ratioP1;P1;durP2;ratioP2;P2;SDS_P1;SDS_P2;PMS_P1;PMS_P2;Temp;Humidity;BMP_temperature;BMP_pressure;BME280_temperature;BME280_humidity;BME280_pressure;Samples;Min_cycle;Max_cycle;Signal;HPM_P1;HPM_P2
2022/10/10 00:02:07;;;;;;;;;;;8.90;99.90;;;;;;5036066;28;20357;-72
2022/10/10 00:04:33;;;;;;;;;;;8.90;99.90;;;;;;5036176;28;19905;-72
2022/10/10 00:06:59;;;;;;;;;;;8.90;99.90;;;;;;5035200;28;19905;-72
2022/10/10 00:09:24;;;;;;;;;;;8.90;99.90;;;;;;5035573;28;19909;-71
2022/10/10 00:11:50;;;;;;;;;;;8.90;99.90;;;;;;5035578;28;19913;-72
2022/10/10 00:14:15;;;;;;;;;;;8.90;99.90;;;;;;5035965;28;19916;-71
2022/10/10 00:16:41;;;;;;;;;;;8.90;99.90;;;;;;5035617;28;20024;-72
2022/10/10 00:19:06;;;;;;;;;;;8.90;99.90;;;;;;5018152;28;19909;-71
2022/10/10 00:21:32;;;;;;;;;;;8.80;99.90;;;;;;5035907;28;20403;-72
2022/10/10 00:23:59;;;;;;;;;;;8.70;99.90;;;;;;5035206;28;19920;-72
2022/10/10 00:26:25;;;;;;;;;;;8.70;99.90;;;;;;5035748;28;19905;-72
2022/10/10 00:28:50;;;;;;;;;;;8.70;99.90;;;;;;5034395;28;19955;-72
2022/10/10 00:31:16;;;;;;;;;;;8.70;99.90;;;;;;5035394;28;20277;-72
2022/10/10 00:33:41;;;;;;;;;;;8.70;99.90;;;;;;5035312;28;19913;-72
2022/10/10 00:36:07;;;;;;;;;;;8.70;99.90;;;;;;5035575;28;19905;-72
2022/10/10 00:38:33;;;;;;;;;;;8.70;99.90;;;;;;5034978;28;19917;-72
2022/10/10 00:40:59;;;;;;;;;;;8.70;99.90;;;;;;5035215;28;19916;-72
2022/10/10 00:43:25;;;;;;;;;;;8.70;99.90;;;;;;5035119;28;20393;-71
2022/10/10 00:45:51;;;;;;;;;;;8.70;99.90;;;;;;5035419;28;19912;-72
2022/10/10 00:48:21;;;;;;;;;;;8.70;99.90;;;;;;5035055;28;19909;-72
2022/10/10 00:50:49;;;;;;;;;;;8.60;99.90;;;;;;5035003;28;19905;-72
2022/10/10 00:53:19;;;;;;;;;;;8.60;99.90;;;;;;5035122;28;19909;-72
2022/10/10 00:55:45;;;;;;;;;;;8.60;99.90;;;;;;5034945;28;19905;-72
2022/10/10 00:58:11;;;;;;;;;;;8.60;99.90;;;;;;5034967;28;19987;-72
2022/10/10 01:00:36;;;;;;;;;;;8.60;99.90;;;;;;5035125;28;19911;-72
2022/10/10 01:03:02;;;;;;;;;;;8.60;99.90;;;;;;5033502;28;19905;-71
2022/10/10 01:05:28;;;;;;;;;;;8.60;99.90;;;;;;5034742;28;20445;-72
2022/10/10 01:07:54;;;;;;;;;;;8.60;99.90;;;;;;5034683;28;19905;-72
2022/10/10 01:10:21;;;;;;;;;;;8.60;99.90;;;;;;5034392;28;20003;-72
2022/10/10 01:13:05;;;;;;;;;;;8.60;99.90;;;;;;5034471;28;19913;-72
2022/10/10 01:15:42;;;;;;;;;;;8.60;99.90;;;;;;5034527;28;19999;-72
2022/10/10 01:18:29;;;;;;;;;;;8.50;99.90;;;;;;5033526;28;19955;-72
2022/10/10 01:21:01;;;;;;;;;;;8.50;99.90;;;;;;5034746;28;20325;-72
2022/10/10 01:23:45;;;;;;;;;;;8.40;99.90;;;;;;5034045;28;20357;-72
2022/10/10 01:26:16;;;;;;;;;;;8.40;99.90;;;;;;5034308;28;19905;-71
2022/10/10 01:28:44;;;;;;;;;;;8.40;99.90;;;;;;5034167;28;20312;-72
2022/10/10 01:31:12;;;;;;;;;;;8.50;99.90;;;;;;5034243;28;20376;-71
2022/10/10 01:33:37;;;;;;;;;;;8.50;99.90;;;;;;5032856;28;19956;-72
2022/10/10 01:36:03;;;;;;;;;;;8.50;99.90;;;;;;5032819;28;20301;-71
2022/10/10 01:38:32;;;;;;;;;;;8.50;99.90;;;;;;5033817;28;19995;-71
2022/10/10 01:41:09;;;;;;;;;;;8.50;99.90;;;;;;5034044;28;19905;-71
2022/10/10 01:43:35;;;;;;;;;;;8.50;99.90;;;;;;5033963;28;19909;-71
2022/10/10 01:46:11;;;;;;;;;;;8.50;99.90;;;;;;5034031;28;19912;-71
2022/10/10 01:48:38;;;;;;;;;;;8.50;99.90;;;;;;5033984;28;20369;-71
2022/10/10 01:51:21;;;;;;;;;;;8.50;99.90;;;;;;5034161;28;20420;-71
2022/10/10 01:54:01;;;;;;;;;;;8.50;99.90;;;;;;5033543;28;19932;-71
2022/10/10 01:56:26;;;;;;;;;;;8.50;99.90;;;;;;5034722;28;20278;-71
2022/10/10 01:59:12;;;;;;;;;;;8.50;99.90;;;;;;5034044;28;19905;-71
2022/10/10 02:01:40;;;;;;;;;;;8.50;99.90;;;;;;5029745;28;19909;-71
2022/10/10 02:04:12;;;;;;;;;;;8.50;99.90;;;;;;5033653;28;19957;-71
2022/10/10 02:06:39;;;;;;;;;;;8.50;99.90;;;;;;5033726;28;19912;-71
2022/10/10 02:09:07;;;;;;;;;;;8.50;99.90;;;;;;5032179;28;19944;-71
2022/10/10 02:11:35;;;;;;;;;;;8.50;99.90;;;;;;5033491;28;19912;-71
2022/10/10 02:14:20;;;;;;;;;;;8.50;99.90;;;;;;5033543;28;20471;-71
2022/10/10 02:16:48;;;;;;;;;;;8.50;99.90;;;;;;5034150;28;20368;-71
2022/10/10 02:19:16;;;;;;;;;;;8.40;99.90;;;;;;5033562;28;19906;-71
2022/10/10 02:21:43;;;;;;;;;;;8.40;99.90;;;;;;5033789;28;19905;-71
2022/10/10 02:24:09;;;;;;;;;;;8.40;99.90;;;;;;5033221;28;19909;-71
2022/10/10 02:26:36;;;;;;;;;;;8.40;99.90;;;;;;5032255;28;20433;-72
2022/10/10 02:29:15;;;;;;;;;;;8.40;99.90;;;;;;5034975;28;19932;-71
2022/10/10 02:31:45;;;;;;;;;;;8.40;99.90;;;;;;5037571;28;19979;-71
2022/10/10 02:34:15;;;;;;;;;;;8.40;99.90;;;;;;5037589;28;19912;-71
2022/10/10 02:36:41;;;;;;;;;;;8.40;99.90;;;;;;5037448;28;19924;-71
2022/10/10 02:39:08;;;;;;;;;;;8.40;99.90;;;;;;5037264;28;19946;-71
2022/10/10 02:41:34;;;;;;;;;;;8.30;99.90;;;;;;5037527;28;20391;-71
2022/10/10 02:44:00;;;;;;;;;;;8.30;99.90;;;;;;5037333;28;19917;-71
2022/10/10 02:46:25;;;;;;;;;;;8.30;99.90;;;;;;5037385;28;20316;-71
2022/10/10 02:48:51;;;;;;;;;;;8.40;99.90;;;;;;5037307;28;19905;-71
2022/10/10 02:51:17;;;;;;;;;;;8.40;99.90;;;;;;5037275;28;19971;-71
2022/10/10 02:53:43;;;;;;;;;;;8.40;99.90;;;;;;5036798;28;20015;-72
2022/10/10 02:56:08;;;;;;;;;;;8.40;99.90;;;;;;5037174;28;19913;-72
2022/10/10 02:58:34;;;;;;;;;;;8.40;99.90;;;;;;5037462;28;19997;-72
2022/10/10 03:01:00;;;;;;;;;;;8.30;99.90;;;;;;5037088;28;20343;-71
2022/10/10 03:03:25;;;;;;;;;;;8.30;99.90;;;;;;5037047;28;20420;-71
2022/10/10 03:05:51;;;;;;;;;;;8.30;99.90;;;;;;5037072;28;20285;-71
2022/10/10 03:08:16;;;;;;;;;;;8.30;99.90;;;;;;5036971;28;20369;-71
2022/10/10 03:10:52;;;;;;;;;;;8.30;99.90;;;;;;5036761;28;19999;-71
2022/10/10 03:13:18;;;;;;;;;;;8.30;99.90;;;;;;5035516;28;19975;-72
2022/10/10 03:15:43;;;;;;;;;;;8.30;99.90;;;;;;5035580;28;19909;-72
2022/10/10 03:18:09;;;;;;;;;;;8.30;99.90;;;;;;5036789;28;20005;-72
2022/10/10 03:20:34;;;;;;;;;;;8.30;99.90;;;;;;5036720;28;19994;-72
2022/10/10 03:23:00;;;;;;;;;;;8.30;99.90;;;;;;5035274;28;19909;-72
2022/10/10 03:25:25;;;;;;;;;;;8.30;99.90;;;;;;5036518;28;19909;-72
2022/10/10 03:27:51;;;;;;;;;;;8.30;99.90;;;;;;5036566;28;19948;-72
2022/10/10 03:30:17;;;;;;;;;;;8.20;99.90;;;;;;5036724;28;19945;-72
2022/10/10 03:32:42;;;;;;;;;;;8.20;99.90;;;;;;5036605;28;19913;-71
2022/10/10 03:35:08;;;;;;;;;;;8.20;99.90;;;;;;5036748;28;19912;-71
2022/10/10 03:37:33;;;;;;;;;;;8.10;99.90;;;;;;5036410;28;20348;-71
2022/10/10 03:39:59;;;;;;;;;;;8.10;99.90;;;;;;5035465;28;20332;-71
2022/10/10 03:42:24;;;;;;;;;;;8.10;99.90;;;;;;5035982;28;20369;-71
2022/10/10 03:44:50;;;;;;;;;;;8.10;99.90;;;;;;5036505;28;20353;-71
2022/10/10 03:47:15;;;;;;;;;;;8.10;99.90;;;;;;5036459;28;19909;-71
2022/10/10 03:49:41;;;;;;;;;;;8.10;99.90;;;;;;5036698;28;19905;-71
2022/10/10 03:52:06;;;;;;;;;;;8.10;99.90;;;;;;5036232;28;19913;-71
2022/10/10 03:54:32;;;;;;;;;;;8.10;99.90;;;;;;5034681;28;19909;-71
2022/10/10 03:56:57;;;;;;;;;;;8.10;99.90;;;;;;5036014;28;19963;-71
2022/10/10 03:59:23;;;;;;;;;;;8.00;99.90;;;;;;5036271;28;19909;-71
2022/10/10 04:01:48;;;;;;;;;;;8.00;99.90;;;;;;5036491;28;19913;-71
2022/10/10 04:04:14;;;;;;;;;;;7.90;99.90;;;;;;5035878;28;19909;-72
2022/10/10 04:06:40;;;;;;;;;;;7.90;99.90;;;;;;5036728;28;19909;-72
2022/10/10 04:09:05;;;;;;;;;;;7.90;99.90;;;;;;5035602;28;19909;-71
2022/10/10 04:11:31;;;;;;;;;;;7.90;99.90;;;;;;5035848;28;20016;-72
2022/10/10 04:13:57;;;;;;;;;;;7.90;99.90;;;;;;5035584;28;20369;-71
2022/10/10 04:16:22;;;;;;;;;;;7.80;99.90;;;;;;5036228;28;20401;-71
2022/10/10 04:18:48;;;;;;;;;;;7.90;99.90;;;;;;5035583;28;20400;-71
2022/10/10 04:21:13;;;;;;;;;;;7.90;99.90;;;;;;5036152;28;19909;-71
2022/10/10 04:23:40;;;;;;;;;;;7.90;99.90;;;;;;5035557;28;19905;-71
2022/10/10 04:26:06;;;;;;;;;;;7.90;99.90;;;;;;5035763;28;19909;-71
2022/10/10 04:28:31;;;;;;;;;;;7.90;99.90;;;;;;5035806;28;19955;-71
2022/10/10 04:30:57;;;;;;;;;;;7.90;99.90;;;;;;5034667;28;19909;-72
2022/10/10 04:33:23;;;;;;;;;;;7.80;99.90;;;;;;5035251;28;20288;-72
2022/10/10 04:35:49;;;;;;;;;;;7.80;99.90;;;;;;5035181;28;19913;-72
2022/10/10 04:38:15;;;;;;;;;;;7.80;99.90;;;;;;5035831;28;19913;-73
2022/10/10 04:40:40;;;;;;;;;;;7.70;99.90;;;;;;5034981;28;20372;-72
2022/10/10 04:43:06;;;;;;;;;;;7.70;99.90;;;;;;5035462;28;20008;-72
2022/10/10 04:45:31;;;;;;;;;;;7.70;99.90;;;;;;5034036;28;19909;-73
2022/10/10 04:47:57;;;;;;;;;;;7.60;99.90;;;;;;5034605;28;19919;-72
2022/10/10 04:50:23;;;;;;;;;;;7.50;99.90;;;;;;5034915;28;19975;-72
2022/10/10 04:52:48;;;;;;;;;;;7.50;99.90;;;;;;5034715;28;20307;-72
2022/10/10 04:55:14;;;;;;;;;;;7.40;99.90;;;;;;5034804;28;20316;-72
2022/10/10 04:57:40;;;;;;;;;;;7.40;99.90;;;;;;5035190;28;20403;-72
2022/10/10 05:00:06;;;;;;;;;;;7.30;99.90;;;;;;5034898;28;19939;-72
2022/10/10 05:02:31;;;;;;;;;;;7.30;99.90;;;;;;5034781;28;19913;-72
2022/10/10 05:04:57;;;;;;;;;;;7.30;99.90;;;;;;5034799;28;19905;-72
2022/10/10 05:07:23;;;;;;;;;;;7.40;99.90;;;;;;5035053;28;20318;-72
2022/10/10 05:09:48;;;;;;;;;;;7.40;99.90;;;;;;5034684;28;20443;-72
2022/10/10 05:12:14;;;;;;;;;;;7.40;99.90;;;;;;5034588;28;19915;-72
2022/10/10 05:14:40;;;;;;;;;;;7.40;99.90;;;;;;5034607;28;19912;-72
2022/10/10 05:17:05;;;;;;;;;;;7.30;99.90;;;;;;5034887;28;19955;-72
2022/10/10 05:19:31;;;;;;;;;;;7.30;99.90;;;;;;5033217;28;19988;-72
2022/10/10 05:21:56;;;;;;;;;;;7.30;99.90;;;;;;5034651;28;19905;-72
2022/10/10 05:24:22;;;;;;;;;;;7.30;99.90;;;;;;5034257;28;19916;-72
2022/10/10 05:26:47;;;;;;;;;;;7.30;99.90;;;;;;5034744;28;20330;-72
2022/10/10 05:29:13;;;;;;;;;;;7.30;99.90;;;;;;5034609;28;19909;-72
2022/10/10 05:31:38;;;;;;;;;;;7.30;99.90;;;;;;5032965;28;20280;-72
2022/10/10 05:34:04;;;;;;;;;;;7.30;99.90;;;;;;5033002;28;19915;-72
2022/10/10 05:36:30;;;;;;;;;;;7.30;99.90;;;;;;5034377;28;19999;-73
2022/10/10 05:38:56;;;;;;;;;;;7.30;99.90;;;;;;5034520;28;19909;-72
2022/10/10 05:41:22;;;;;;;;;;;7.20;99.90;;;;;;5033885;28;19909;-72
2022/10/10 05:43:47;;;;;;;;;;;7.20;99.90;;;;;;5034098;28;20373;-72
2022/10/10 05:46:13;;;;;;;;;;;7.20;99.90;;;;;;5032795;28;19909;-72
2022/10/10 05:48:38;;;;;;;;;;;7.20;99.90;;;;;;5034030;28;19913;-73
2022/10/10 05:51:05;;;;;;;;;;;7.20;99.90;;;;;;5033985;28;19909;-72
2022/10/10 05:53:31;;;;;;;;;;;7.20;99.90;;;;;;5033830;28;19955;-72
2022/10/10 05:55:57;;;;;;;;;;;7.20;99.90;;;;;;5033687;28;19909;-72
2022/10/10 05:58:22;;;;;;;;;;;7.20;99.90;;;;;;5033874;28;19916;-72
2022/10/10 06:00:49;;;;;;;;;;;7.20;99.90;;;;;;5034056;28;19932;-72
2022/10/10 06:03:16;;;;;;;;;;;7.20;99.90;;;;;;5033387;28;19905;-72
2022/10/10 06:05:42;;;;;;;;;;;7.20;99.90;;;;;;5033706;28;19909;-72
2022/10/10 06:08:08;;;;;;;;;;;7.20;99.90;;;;;;5033985;28;19905;-72
2022/10/10 06:10:34;;;;;;;;;;;7.10;99.90;;;;;;5033484;28;19909;-71
2022/10/10 06:12:59;;;;;;;;;;;7.10;99.90;;;;;;5033515;28;19917;-72
2022/10/10 06:15:25;;;;;;;;;;;7.10;99.90;;;;;;5033663;28;20258;-72
2022/10/10 06:17:50;;;;;;;;;;;7.10;99.90;;;;;;5034176;28;19905;-72
2022/10/10 06:20:16;;;;;;;;;;;7.10;99.90;;;;;;5033562;28;19932;-72
2022/10/10 06:22:41;;;;;;;;;;;7.10;99.90;;;;;;5033711;28;20388;-73
2022/10/10 06:25:07;;;;;;;;;;;7.10;99.90;;;;;;5033355;28;20384;-71
2022/10/10 06:27:33;;;;;;;;;;;7.10;99.90;;;;;;5033506;28;19909;-72
2022/10/10 06:29:58;;;;;;;;;;;7.20;99.90;;;;;;5033802;28;19913;-72
2022/10/10 06:32:24;;;;;;;;;;;7.10;99.90;;;;;;5033373;28;19920;-72
2022/10/10 06:34:49;;;;;;;;;;;7.20;99.90;;;;;;5032555;28;19996;-72
2022/10/10 06:37:15;;;;;;;;;;;7.20;99.90;;;;;;5033334;28;19967;-73
2022/10/10 06:39:41;;;;;;;;;;;7.20;99.90;;;;;;5033469;28;19963;-72
2022/10/10 06:42:06;;;;;;;;;;;7.20;99.90;;;;;;5033327;28;19909;-72
2022/10/10 06:44:32;;;;;;;;;;;7.30;99.90;;;;;;5032041;28;19909;-72
2022/10/10 06:46:58;;;;;;;;;;;7.30;99.90;;;;;;5033306;28;19939;-72
2022/10/10 06:49:23;;;;;;;;;;;7.40;99.90;;;;;;5033297;28;20008;-72
2022/10/10 06:51:49;;;;;;;;;;;7.40;99.90;;;;;;5033224;28;19913;-72
2022/10/10 06:54:14;;;;;;;;;;;7.50;99.90;;;;;;5033207;28;19909;-72
2022/10/10 06:56:40;;;;;;;;;;;7.50;99.90;;;;;;5033026;28;19966;-72
2022/10/10 06:59:05;;;;;;;;;;;7.60;99.90;;;;;;5033274;28;19909;-72
2022/10/10 07:01:31;;;;;;;;;;;7.70;99.90;;;;;;5033188;28;19960;-72
2022/10/10 07:03:56;;;;;;;;;;;7.70;99.90;;;;;;5033087;28;19916;-72
2022/10/10 07:06:22;;;;;;;;;;;7.80;99.90;;;;;;5033144;28;19909;-72
2022/10/10 07:08:47;;;;;;;;;;;7.90;99.90;;;;;;5033754;28;19912;-72
2022/10/10 07:11:13;;;;;;;;;;;7.90;99.90;;;;;;5032828;28;19909;-72
2022/10/10 07:13:39;;;;;;;;;;;8.00;99.90;;;;;;5033252;28;19923;-72
2022/10/10 07:16:05;;;;;;;;;;;8.00;99.90;;;;;;5036133;28;19932;-72
2022/10/10 07:18:31;;;;;;;;;;;8.10;99.90;;;;;;5037142;28;19924;-73
2022/10/10 07:20:57;;;;;;;;;;;8.20;99.90;;;;;;5036830;28;19905;-72
2022/10/10 07:23:23;;;;;;;;;;;8.30;99.90;;;;;;5036666;28;20258;-72
2022/10/10 07:25:49;;;;;;;;;;;8.40;99.90;;;;;;5036408;28;19959;-72
2022/10/10 07:28:14;;;;;;;;;;;8.40;99.90;;;;;;5036663;28;19932;-72
2022/10/10 07:30:42;;;;;;;;;;;8.60;99.90;;;;;;5036548;28;19913;-72
2022/10/10 07:33:08;;;;;;;;;;;8.60;99.90;;;;;;5036458;28;19955;-72
2022/10/10 07:35:33;;;;;;;;;;;8.70;99.90;;;;;;5035236;28;19905;-72
2022/10/10 07:37:59;;;;;;;;;;;8.80;99.90;;;;;;5036457;28;20382;-72
2022/10/10 07:40:24;;;;;;;;;;;8.90;99.90;;;;;;5036264;28;19909;-72
2022/10/10 07:42:50;;;;;;;;;;;9.00;99.90;;;;;;5036252;28;20051;-73
2022/10/10 07:45:16;;;;;;;;;;;9.10;99.90;;;;;;5036615;28;19951;-72
2022/10/10 07:47:41;;;;;;;;;;;9.30;99.90;;;;;;5036197;28;20442;-72
2022/10/10 07:50:07;;;;;;;;;;;9.40;99.90;;;;;;5036526;28;19927;-72
2022/10/10 07:52:33;;;;;;;;;;;9.50;99.90;;;;;;5036255;28;19913;-72
2022/10/10 07:54:59;;;;;;;;;;;9.60;99.90;;;;;;5035895;28;19956;-72
2022/10/10 07:57:25;;;;;;;;;;;9.70;99.90;;;;;;5036122;28;19913;-72
2022/10/10 07:59:50;;;;;;;;;;;9.80;99.90;;;;;;5036330;28;20405;-72
2022/10/10 08:02:16;;;;;;;;;;;9.90;99.90;;;;;;5035928;28;20324;-72
2022/10/10 08:04:41;;;;;;;;;;;10.00;99.90;;;;;;5035931;28;19909;-72
2022/10/10 08:07:07;;;;;;;;;;;10.10;99.90;;;;;;5035966;28;19917;-72
2022/10/10 08:09:33;;;;;;;;;;;10.30;99.90;;;;;;5036191;28;19905;-72
2022/10/10 08:11:59;;;;;;;;;;;10.40;99.90;;;;;;5035429;28;19917;-72
2022/10/10 08:14:24;;;;;;;;;;;10.50;99.90;;;;;;5036104;28;20000;-72
2022/10/10 08:16:50;;;;;;;;;;;10.60;99.90;;;;;;5036028;28;19909;-72
2022/10/10 08:19:15;;;;;;;;;;;10.80;99.90;;;;;;5035942;28;20327;-72
2022/10/10 08:21:41;;;;;;;;;;;10.80;99.90;;;;;;5035661;28;19971;-72
2022/10/10 08:24:06;;;;;;;;;;;11.00;99.90;;;;;;5035807;28;19909;-72
2022/10/10 08:26:32;;;;;;;;;;;11.10;99.90;;;;;;5034853;28;19909;-72
2022/10/10 08:28:57;;;;;;;;;;;11.20;99.90;;;;;;5035507;28;20357;-72
2022/10/10 08:31:23;;;;;;;;;;;11.30;99.90;;;;;;5035477;28;20384;-72
2022/10/10 08:33:49;;;;;;;;;;;11.40;99.90;;;;;;5035324;28;20000;-72
2022/10/10 08:36:16;;;;;;;;;;;11.50;99.90;;;;;;5035372;28;19905;-72
2022/10/10 08:38:42;;;;;;;;;;;11.70;99.90;;;;;;5035540;28;20277;-72
2022/10/10 08:41:21;;;;;;;;;;;11.80;99.90;;;;;;5035014;28;19905;-72
2022/10/10 08:43:50;;;;;;;;;;;11.90;99.90;;;;;;5035207;28;19910;-72
2022/10/10 08:46:23;;;;;;;;;;;12.00;99.90;;;;;;5035451;28;20384;-72
2022/10/10 08:48:49;;;;;;;;;;;12.20;99.90;;;;;;5035453;28;20353;-71
2022/10/10 08:51:27;;;;;;;;;;;12.30;99.90;;;;;;5035095;28;19955;-72
2022/10/10 08:53:56;;;;;;;;;;;12.40;99.90;;;;;;5034966;28;19909;-72
2022/10/10 08:56:31;;;;;;;;;;;12.50;99.90;;;;;;5034855;28;19913;-72
2022/10/10 08:59:03;;;;;;;;;;;12.60;99.90;;;;;;5035294;28;20015;-72
2022/10/10 09:01:32;;;;;;;;;;;12.70;99.90;;;;;;5034888;28;19915;-72
2022/10/10 09:03:59;;;;;;;;;;;12.70;99.90;;;;;;5034852;28;20258;-72
2022/10/10 09:06:43;;;;;;;;;;;12.80;99.90;;;;;;5035396;28;20342;-72
2022/10/10 09:09:27;;;;;;;;;;;12.80;99.90;;;;;;5034100;28;20360;-71
2022/10/10 09:11:55;;;;;;;;;;;12.90;99.90;;;;;;5034249;28;19905;-72
2022/10/10 09:14:36;;;;;;;;;;;13.00;99.90;;;;;;5034635;28;19916;-72
2022/10/10 09:17:07;;;;;;;;;;;13.20;99.90;;;;;;5034571;28;19912;-71
2022/10/10 09:19:56;;;;;;;;;;;13.30;99.90;;;;;;5034856;28;19905;-72
2022/10/10 09:22:24;;;;;;;;;;;13.40;99.90;;;;;;5024193;28;19905;-72
2022/10/10 09:25:06;;;;;;;;;;;13.50;99.90;;;;;;5034429;28;19905;-71
2022/10/10 09:27:34;;;;;;;;;;;13.50;99.90;;;;;;5034422;28;19905;-71
2022/10/10 09:30:00;;;;;;;;;;;13.60;99.90;;;;;;5033356;28;19905;-71
2022/10/10 09:32:29;;;;;;;;;;;13.60;99.90;;;;;;5034157;28;20273;-71
2022/10/10 09:35:17;;;;;;;;;;;13.70;99.90;;;;;;5034500;28;19905;-71
2022/10/10 09:37:44;;;;;;;;;;;13.70;99.90;;;;;;5030853;28;19959;-71
2022/10/10 09:40:28;;;;;;;;;;;13.90;99.90;;;;;;5033341;28;20305;-71
2022/10/10 09:42:54;;;;;;;;;;;13.90;99.90;;;;;;5034147;28;19912;-71
2022/10/10 09:45:24;;;;;;;;;;;14.00;99.90;;;;;;5034634;28;20250;-71
2022/10/10 09:47:52;;;;;;;;;;;14.10;99.90;;;;;;5032739;28;19909;-71
2022/10/10 09:50:18;;;;;;;;;;;14.20;99.90;;;;;;5034252;28;19905;-71
2022/10/10 09:52:44;;;;;;;;;;;14.30;99.90;;;;;;5034204;28;20281;-71
2022/10/10 09:55:16;;;;;;;;;;;14.40;99.90;;;;;;5033950;28;19905;-71
2022/10/10 09:57:42;;;;;;;;;;;14.50;99.90;;;;;;5033941;28;19992;-71
2022/10/10 10:00:19;;;;;;;;;;;14.50;99.90;;;;;;5033836;28;19944;-71
2022/10/10 10:02:48;;;;;;;;;;;14.60;99.90;;;;;;5033793;28;19905;-71
2022/10/10 10:05:24;;;;;;;;;;;14.70;99.90;;;;;;5033769;28;19948;-71
2022/10/10 10:07:51;;;;;;;;;;;14.80;99.90;;;;;;5032360;28;19909;-71
2022/10/10 10:10:18;;;;;;;;;;;14.90;99.90;;;;;;5033593;28;19905;-71
2022/10/10 10:12:44;;;;;;;;;;;15.00;99.90;;;;;;5033811;28;19909;-71
2022/10/10 10:15:20;;;;;;;;;;;15.10;99.90;;;;;;5032368;28;19906;-71
2022/10/10 10:18:06;;;;;;;;;;;15.30;99.90;;;;;;5033617;28;19905;-71
2022/10/10 10:20:34;;;;;;;;;;;15.40;99.90;;;;;;5033767;28;19905;-71
2022/10/10 10:23:00;;;;;;;;;;;15.50;99.90;;;;;;5033509;28;19984;-71
2022/10/10 10:25:31;;;;;;;;;;;15.60;99.90;;;;;;5033315;28;20052;-71
2022/10/10 10:28:16;;;;;;;;;;;15.70;99.90;;;;;;5033503;28;20300;-71
2022/10/10 10:30:43;;;;;;;;;;;15.80;99.90;;;;;;5033754;28;19951;-71
2022/10/10 10:33:08;;;;;;;;;;;15.90;99.90;;;;;;5033878;28;19936;-71
2022/10/10 10:35:34;;;;;;;;;;;16.00;99.90;;;;;;5033396;28;20350;-71
2022/10/10 10:38:29;;;;;;;;;;;16.10;99.90;;;;;;5033899;28;19984;-71
2022/10/10 10:40:59;;;;;;;;;;;16.20;99.90;;;;;;5028180;28;19992;-71
2022/10/10 10:43:24;;;;;;;;;;;16.30;99.90;;;;;;5033578;28;19904;-71
2022/10/10 10:46:06;;;;;;;;;;;16.40;99.90;;;;;;5032100;28;19911;-71
2022/10/10 10:48:32;;;;;;;;;;;16.50;99.90;;;;;;5033300;28;19905;-71
2022/10/10 10:51:11;;;;;;;;;;;16.60;99.90;;;;;;5035984;28;19912;-71
2022/10/10 10:53:54;;;;;;;;;;;16.70;99.90;;;;;;5037463;28;20349;-71
2022/10/10 10:56:19;;;;;;;;;;;16.90;99.90;;;;;;5037331;28;20281;-71
2022/10/10 10:58:57;;;;;;;;;;;17.00;99.90;;;;;;5037224;28;19912;-71
2022/10/10 11:01:29;;;;;;;;;;;17.10;99.90;;;;;;5037224;28;19905;-71
2022/10/10 11:03:58;;;;;;;;;;;17.20;99.90;;;;;;5037040;28;20388;-71
2022/10/10 11:06:39;;;;;;;;;;;17.20;99.90;;;;;;5037396;28;19963;-71
2022/10/10 11:09:05;;;;;;;;;;;17.30;99.90;;;;;;5036986;28;19909;-71
2022/10/10 11:11:37;;;;;;;;;;;17.40;99.90;;;;;;5035426;28;19905;-71
2022/10/10 11:14:08;;;;;;;;;;;17.50;99.90;;;;;;5036759;28;19962;-71
2022/10/10 11:16:38;;;;;;;;;;;17.60;99.90;;;;;;5036828;28;20416;-71
2022/10/10 11:19:09;;;;;;;;;;;17.70;99.90;;;;;;5036838;28;19912;-71
2022/10/10 11:21:39;;;;;;;;;;;17.80;99.90;;;;;;5035513;28;19911;-71
2022/10/10 11:24:09;;;;;;;;;;;17.90;99.90;;;;;;5036457;28;19948;-71
2022/10/10 11:26:36;;;;;;;;;;;18.00;99.90;;;;;;5036507;28;19913;-71
2022/10/10 11:29:09;;;;;;;;;;;18.20;99.90;;;;;;5036626;28;19904;-71
2022/10/10 11:31:55;;;;;;;;;;;18.30;99.90;;;;;;5036903;28;19912;-71
2022/10/10 11:34:23;;;;;;;;;;;18.40;99.90;;;;;;5035098;28;19913;-71
2022/10/10 11:36:50;;;;;;;;;;;18.50;99.90;;;;;;5036339;28;19909;-71
2022/10/10 11:39:24;;;;;;;;;;;18.50;99.90;;;;;;5036640;28;19987;-71
2022/10/10 11:41:58;;;;;;;;;;;18.60;99.90;;;;;;5036442;28;20024;-73
2022/10/10 11:44:43;;;;;;;;;;;18.80;99.90;;;;;;5036632;28;19905;-71
2022/10/10 11:47:18;;;;;;;;;;;19.00;99.90;;;;;;5035824;28;19909;-71
2022/10/10 11:49:56;;;;;;;;;;;19.10;99.90;;;;;;5036278;28;20289;-72
2022/10/10 11:52:28;;;;;;;;;;;19.20;99.90;;;;;;5036452;28;19991;-71
2022/10/10 11:54:56;;;;;;;;;;;19.30;98.80;;;;;;5036192;28;20039;-71
2022/10/10 11:57:26;;;;;;;;;;;19.40;99.00;;;;;;5035828;28;19905;-71
2022/10/10 11:59:54;;;;;;;;;;;19.50;97.80;;;;;;5036037;28;19905;-71
2022/10/10 12:02:25;;;;;;;;;;;19.60;96.90;;;;;;5035039;28;20312;-71
2022/10/10 12:04:51;;;;;;;;;;;19.70;96.20;;;;;;5036241;28;19928;-71
2022/10/10 12:07:36;;;;;;;;;;;19.80;95.70;;;;;;5035892;28;20361;-71
2022/10/10 12:10:08;;;;;;;;;;;19.80;95.90;;;;;;5034130;28;19905;-71
2022/10/10 12:12:37;;;;;;;;;;;19.90;98.50;;;;;;5035540;28;20004;-71
2022/10/10 12:15:04;;;;;;;;;;;20.10;96.10;;;;;;5036076;28;20003;-71
2022/10/10 12:17:34;;;;;;;;;;;20.10;96.80;;;;;;5035988;28;20330;-71
2022/10/10 12:20:12;;;;;;;;;;;20.20;94.90;;;;;;5035930;28;19905;-71
2022/10/10 12:22:38;;;;;;;;;;;20.30;96.30;;;;;;5035619;28;19941;-71
2022/10/10 12:25:24;;;;;;;;;;;20.50;95.30;;;;;;5035939;28;20400;-70
2022/10/10 12:28:05;;;;;;;;;;;20.50;95.50;;;;;;5027237;28;20340;-70
2022/10/10 12:30:30;;;;;;;;;;;20.60;92.90;;;;;;5035475;28;19948;-70
2022/10/10 12:32:56;;;;;;;;;;;20.70;95.20;;;;;;5035468;28;19956;-70
2022/10/10 12:35:27;;;;;;;;;;;20.80;94.70;;;;;;5035421;28;19915;-70
2022/10/10 12:38:06;;;;;;;;;;;20.90;94.50;;;;;;5033977;28;19988;-71
2022/10/10 12:40:32;;;;;;;;;;;21.00;93.00;;;;;;5035056;28;19912;-71
2022/10/10 12:42:59;;;;;;;;;;;21.00;94.70;;;;;;5036039;28;20292;-71
2022/10/10 12:45:28;;;;;;;;;;;21.10;93.70;;;;;;5035509;28;20353;-70
2022/10/10 12:47:54;;;;;;;;;;;21.20;94.40;;;;;;5035159;28;19956;-69
2022/10/10 12:50:24;;;;;;;;;;;21.30;91.20;;;;;;5035111;28;19952;-70
2022/10/10 12:53:00;;;;;;;;;;;21.30;92.40;;;;;;5035168;28;20325;-70
2022/10/10 12:55:41;;;;;;;;;;;21.30;93.90;;;;;;5035304;28;19920;-70
2022/10/10 12:58:09;;;;;;;;;;;21.50;92.60;;;;;;5034970;28;19976;-69
2022/10/10 13:00:37;;;;;;;;;;;21.60;92.40;;;;;;5034935;28;19905;-70
2022/10/10 13:03:03;;;;;;;;;;;21.70;93.20;;;;;;5035016;28;19905;-69
2022/10/10 13:05:35;;;;;;;;;;;21.80;92.30;;;;;;5034848;28;20344;-69
2022/10/10 13:08:02;;;;;;;;;;;21.90;90.50;;;;;;5035111;28;20308;-70
2022/10/10 13:10:29;;;;;;;;;;;21.90;90.10;;;;;;5034673;28;19906;-69
2022/10/10 13:13:02;;;;;;;;;;;21.90;90.90;;;;;;5034207;28;20312;-69
2022/10/10 13:15:28;;;;;;;;;;;21.90;90.50;;;;;;5034685;28;19944;-69
2022/10/10 13:17:54;;;;;;;;;;;21.80;86.70;;;;;;5034832;28;19912;-67
2022/10/10 13:20:33;;;;;;;;;;;21.80;81.30;;;;;;5034545;28;19905;-67
2022/10/10 13:23:02;;;;;;;;;;;21.70;82.90;;;;;;5034444;28;19905;-68
2022/10/10 13:25:28;;;;;;;;;;;21.60;79.70;;;;;;5034715;28;19911;-68
2022/10/10 13:27:53;;;;;;;;;;;21.40;78.60;;;;;;5032984;28;19995;-69
2022/10/10 13:30:20;;;;;;;;;;;21.30;81.40;;;;;;5034308;28;20288;-68
2022/10/10 13:32:46;;;;;;;;;;;21.10;81.70;;;;;;5034150;28;20349;-68
2022/10/10 13:35:13;;;;;;;;;;;21.00;81.10;;;;;;5034198;28;19906;-69
2022/10/10 13:37:40;;;;;;;;;;;20.90;85.00;;;;;;5034287;28;19966;-69
2022/10/10 13:40:12;;;;;;;;;;;20.90;86.80;;;;;;5034142;28;19991;-69
2022/10/10 13:42:38;;;;;;;;;;;20.90;87.40;;;;;;5034149;28;19905;-69
2022/10/10 13:45:39;;;;;;;;;;;20.90;89.30;;;;;;5034130;28;19940;-69
2022/10/10 13:48:15;;;;;;;;;;;20.80;90.50;;;;;;5012470;28;19921;-69
2022/10/10 13:50:41;;;;;;;;;;;20.90;90.40;;;;;;5027227;28;19909;-69
2022/10/10 13:53:23;;;;;;;;;;;20.90;85.80;;;;;;5033809;28;20376;-69
2022/10/10 13:55:49;;;;;;;;;;;20.90;88.00;;;;;;5033956;28;19956;-69
2022/10/10 13:58:15;;;;;;;;;;;20.90;90.30;;;;;;5033933;28;19969;-69
2022/10/10 14:00:41;;;;;;;;;;;20.90;90.10;;;;;;5033825;28;19917;-69
2022/10/10 14:03:17;;;;;;;;;;;20.90;88.90;;;;;;5033784;28;20249;-69
2022/10/10 14:05:44;;;;;;;;;;;20.90;88.10;;;;;;5032515;28;19905;-69
2022/10/10 14:08:14;;;;;;;;;;;21.00;90.00;;;;;;5034089;28;19995;-67
2022/10/10 14:10:40;;;;;;;;;;;21.10;89.00;;;;;;5033916;28;19905;-69
2022/10/10 14:13:13;;;;;;;;;;;21.10;90.00;;;;;;5033306;28;19920;-68
2022/10/10 14:15:41;;;;;;;;;;;21.10;85.60;;;;;;5034234;28;19911;-68
2022/10/10 14:18:20;;;;;;;;;;;21.10;85.80;;;;;;5033654;28;20054;-69
2022/10/10 14:20:46;;;;;;;;;;;21.20;87.00;;;;;;5033614;28;19911;-69
2022/10/10 14:23:12;;;;;;;;;;;21.30;89.70;;;;;;5033584;28;19983;-69
2022/10/10 14:25:38;;;;;;;;;;;21.40;85.80;;;;;;5033286;28;19913;-68
2022/10/10 14:28:04;;;;;;;;;;;21.40;84.90;;;;;;5033314;28;19984;-68
2022/10/10 14:30:29;;;;;;;;;;;21.40;84.20;;;;;;5033457;28;19952;-68
2022/10/10 14:32:55;;;;;;;;;;;21.40;83.70;;;;;;5033699;28;19960;-68